createdAt,value
2023-02-17T00:02:09.956Z,20.65
2023-02-17T00:04:43.515Z,22.10
2023-02-17T00:07:10.276Z,23.17
2023-02-17T00:09:43.464Z,20.60
2023-02-17T00:12:10.607Z,21.10
2023-02-17T00:14:49.948Z,20.17
2023-02-17T00:17:16.737Z,20.20
2023-02-17T00:19:52.382Z,19.35
2023-02-17T00:22:21.637Z,20.38
2023-02-17T00:25:25.467Z,19.08
2023-02-17T00:27:52.203Z,17.90
2023-02-17T00:30:26.807Z,17.92
2023-02-17T00:32:57.034Z,19.73
2023-02-17T00:35:32.583Z,18.17
2023-02-17T00:38:05.462Z,17.85
2023-02-17T00:40:32.331Z,17.77
2023-02-17T00:43:05.597Z,17.95
2023-02-17T00:45:35.321Z,18.63
2023-02-17T00:48:08.716Z,17.58
2023-02-17T00:50:38.772Z,18.10
2023-02-17T00:53:08.782Z,18.00
2023-02-17T00:55:42.438Z,17.30
2023-02-17T00:58:16.479Z,18.15
2023-02-17T01:00:53.415Z,19.45
2023-02-17T01:03:41.478Z,19.77
2023-02-17T01:06:36.912Z,17.77
2023-02-17T01:09:21.639Z,18.42
2023-02-17T01:11:48.495Z,18.65
2023-02-17T01:14:21.514Z,20.30
2023-02-17T01:16:49.654Z,19.27
2023-02-17T01:19:26.400Z,19.92
2023-02-17T01:21:53.098Z,20.55
2023-02-17T01:24:26.563Z,19.73
2023-02-17T01:26:53.524Z,19.92
2023-02-17T01:29:20.450Z,19.05
2023-02-17T01:31:53.535Z,19.10
2023-02-17T01:34:28.571Z,19.92
2023-02-17T01:37:01.529Z,19.92
2023-02-17T01:39:28.267Z,19.77
2023-02-17T01:42:01.492Z,19.10
2023-02-17T01:44:33.014Z,19.45
2023-02-17T01:47:06.546Z,17.98
2023-02-17T01:49:46.422Z,18.80
2023-02-17T01:52:23.098Z,19.17
2023-02-17T01:55:04.856Z,17.25
2023-02-17T01:57:46.503Z,19.08
2023-02-17T02:00:15.033Z,18.25
2023-02-17T02:03:18.176Z,19.33
2023-02-17T02:06:25.120Z,18.70
2023-02-17T02:09:28.517Z,19.02
2023-02-17T02:12:06.664Z,18.00
2023-02-17T02:14:39.652Z,17.85
2023-02-17T02:17:15.933Z,17.00
2023-02-17T02:20:12.478Z,17.27
2023-02-17T02:22:51.630Z,16.15
2023-02-17T02:25:48.554Z,16.15
2023-02-17T02:28:42.825Z,16.55
2023-02-17T02:31:43.710Z,17.05
2023-02-17T02:34:17.308Z,15.52
2023-02-17T02:36:57.529Z,15.30
2023-02-17T02:39:36.650Z,15.38
2023-02-17T02:42:08.305Z,16.40
2023-02-17T02:44:44.252Z,15.73
2023-02-17T02:47:50.536Z,15.07
2023-02-17T02:50:47.588Z,15.32
2023-02-17T02:53:27.532Z,16.95
2023-02-17T02:56:33.296Z,16.02
2023-02-17T02:59:36.580Z,16.92
2023-02-17T03:02:35.496Z,16.10
2023-02-17T03:05:50.575Z,14.23
2023-02-17T03:08:56.632Z,15.63
2023-02-17T03:11:38.565Z,17.58
2023-02-17T03:14:16.001Z,17.02
2023-02-17T03:16:49.661Z,16.45
2023-02-17T03:19:18.402Z,17.30
2023-02-17T03:21:58.642Z,17.42
2023-02-17T03:24:38.029Z,16.17
2023-02-17T03:27:14.681Z,17.52
2023-02-17T03:29:50.652Z,15.27
2023-02-17T03:32:50.361Z,15.45
2023-02-17T03:35:32.464Z,15.32
2023-02-17T03:38:07.995Z,14.75
2023-02-17T03:40:41.506Z,15.07
2023-02-17T03:43:08.518Z,16.13
2023-02-17T03:45:44.577Z,16.77
2023-02-17T03:48:11.601Z,16.75
2023-02-17T03:50:51.629Z,15.15
2023-02-17T03:53:21.404Z,17.33
2023-02-17T03:56:11.715Z,15.20
2023-02-17T03:58:45.560Z,14.70
2023-02-17T04:01:13.886Z,14.18
2023-02-17T04:03:47.633Z,16.17
2023-02-17T04:06:22.441Z,15.20
2023-02-17T04:08:55.781Z,12.57
2023-02-17T04:11:45.774Z,16.58
2023-02-17T04:14:19.464Z,15.75
2023-02-17T04:16:46.287Z,15.95
2023-02-17T04:19:21.203Z,15.45
2023-02-17T04:21:54.620Z,15.15
2023-02-17T04:24:24.840Z,14.35
2023-02-17T04:27:10.522Z,14.32
2023-02-17T04:29:37.535Z,15.52
2023-02-17T04:32:11.639Z,13.95
2023-02-17T04:34:50.087Z,13.65
2023-02-17T04:37:24.783Z,12.80
2023-02-17T04:39:57.598Z,14.55
2023-02-17T04:42:31.602Z,12.52
2023-02-17T04:45:07.566Z,14.60
2023-02-17T04:47:37.605Z,14.38
2023-02-17T04:50:12.640Z,14.30
2023-02-17T04:52:42.118Z,13.93
2023-02-17T04:55:15.768Z,12.48
2023-02-17T04:57:45.026Z,12.48
2023-02-17T05:00:12.280Z,12.00
2023-02-17T05:02:45.685Z,12.48
2023-02-17T05:05:31.729Z,11.23
2023-02-17T05:08:08.733Z,11.35
2023-02-17T05:10:41.522Z,11.70
2023-02-17T05:13:08.505Z,11.13
2023-02-17T05:15:44.646Z,11.00
2023-02-17T05:18:18.523Z,11.10
2023-02-17T05:20:51.652Z,10.98
2023-02-17T05:23:18.660Z,11.20
2023-02-17T05:25:57.858Z,10.68
2023-02-17T05:28:30.815Z,10.55
2023-02-17T05:31:14.695Z,10.88
2023-02-17T05:33:50.494Z,10.52
2023-02-17T05:39:10.560Z,10.30
2023-02-17T05:41:46.870Z,11.45
2023-02-17T05:44:19.618Z,11.00
2023-02-17T05:46:48.919Z,11.30
2023-02-17T05:49:24.943Z,10.10
2023-02-17T05:51:51.836Z,11.43
2023-02-17T05:54:32.586Z,11.70
2023-02-17T05:56:59.556Z,11.75
2023-02-17T05:59:33.592Z,12.93
2023-02-17T06:02:06.125Z,12.20
2023-02-17T06:04:39.685Z,12.77
2023-02-17T06:07:12.717Z,13.88
2023-02-17T06:09:47.235Z,13.73
2023-02-17T06:12:14.022Z,15.00
2023-02-17T06:14:45.726Z,14.98
2023-02-17T06:17:18.604Z,15.27
2023-02-17T06:19:51.689Z,15.85
2023-02-17T06:22:24.675Z,15.15
2023-02-17T06:24:53.562Z,16.08
2023-02-17T06:27:26.672Z,15.73
2023-02-17T06:29:53.407Z,14.07
2023-02-17T06:32:26.601Z,15.02
2023-02-17T06:34:53.389Z,16.77
2023-02-17T06:37:26.719Z,17.23
2023-02-17T06:39:53.555Z,15.88
2023-02-17T06:42:26.649Z,14.77
2023-02-17T06:44:56.006Z,17.00
2023-02-17T06:47:29.670Z,17.40
2023-02-17T06:50:06.422Z,16.63
2023-02-17T06:52:33.165Z,16.30
2023-02-17T06:55:06.794Z,15.18
2023-02-17T06:57:33.626Z,16.75
2023-02-17T07:00:00.782Z,15.77
2023-02-17T07:05:40.633Z,16.90
2023-02-17T07:08:07.586Z,12.48
2023-02-17T07:10:41.584Z,17.55
2023-02-17T07:13:08.863Z,18.30
2023-02-17T07:15:42.653Z,17.10
2023-02-17T07:18:09.484Z,17.08
2023-02-17T07:20:43.719Z,18.02
2023-02-17T07:23:10.693Z,17.25
2023-02-17T07:26:11.756Z,17.25
2023-02-17T07:28:40.016Z,17.77
2023-02-17T07:31:40.532Z,16.05
2023-02-17T07:34:14.662Z,17.58
2023-02-17T07:36:55.068Z,17.33
2023-02-17T07:39:31.676Z,18.42
2023-02-17T07:42:01.213Z,17.67
2023-02-17T07:44:34.860Z,18.38
2023-02-17T07:47:01.516Z,13.80
2023-02-17T07:49:55.663Z,18.05
2023-02-17T07:52:37.092Z,16.98
2023-02-17T07:55:13.428Z,16.13
2023-02-17T07:57:40.355Z,15.88
2023-02-17T08:00:14.813Z,16.70
2023-02-17T08:02:41.524Z,17.35
2023-02-17T08:05:21.064Z,13.00
2023-02-17T08:08:14.117Z,15.45
2023-02-17T08:11:11.511Z,15.80
2023-02-17T08:13:38.517Z,16.00
2023-02-17T08:17:09.322Z,15.30
2023-02-17T08:19:47.434Z,14.55
2023-02-17T08:22:31.875Z,16.33
2023-02-17T08:25:01.136Z,14.10
2023-02-17T08:27:34.725Z,14.20
2023-02-17T08:30:01.626Z,14.70
2023-02-17T08:32:37.657Z,10.70
2023-02-17T08:35:14.237Z,12.98
2023-02-17T08:37:47.647Z,14.68
2023-02-17T08:40:27.084Z,15.52
2023-02-17T08:43:02.990Z,15.82
2023-02-17T08:45:36.147Z,14.38
2023-02-17T08:48:12.185Z,13.95
2023-02-17T08:50:39.021Z,13.98
2023-02-17T08:53:12.775Z,13.00
2023-02-17T08:55:49.265Z,12.23
2023-02-17T08:58:25.350Z,14.13
2023-02-17T09:00:52.332Z,13.57
2023-02-17T09:08:46.076Z,13.25
2023-02-17T09:11:55.872Z,11.88
2023-02-17T09:14:24.371Z,13.40
2023-02-17T09:17:03.836Z,11.20
2023-02-17T09:19:30.588Z,11.57
2023-02-17T09:22:03.715Z,10.48
2023-02-17T09:24:49.801Z,12.20
2023-02-17T09:27:24.759Z,11.30
2023-02-17T09:29:51.518Z,10.68
2023-02-17T09:32:36.142Z,10.52
2023-02-17T09:35:12.447Z,9.65
2023-02-17T09:37:48.591Z,8.65
2023-02-17T09:40:35.389Z,10.80
2023-02-17T09:43:10.004Z,9.55
2023-02-17T09:45:37.069Z,8.95
2023-02-17T09:48:38.555Z,8.02
2023-02-17T09:51:19.565Z,9.63
2023-02-17T09:54:11.014Z,9.32
2023-02-17T09:57:15.634Z,8.48
2023-02-17T09:59:53.773Z,7.88
2023-02-17T10:06:09.060Z,9.48
2023-02-17T10:09:12.945Z,8.50
2023-02-17T10:11:49.728Z,7.55
2023-02-17T10:14:48.775Z,7.78
2023-02-17T10:17:35.117Z,8.20
2023-02-17T10:20:38.140Z,7.28
2023-02-17T10:23:10.888Z,7.07
2023-02-17T10:25:58.785Z,6.90
2023-02-17T10:28:34.899Z,6.32
2023-02-17T10:31:38.842Z,7.05
2023-02-17T10:34:24.802Z,6.80
2023-02-17T10:37:31.808Z,5.55
2023-02-17T10:39:58.804Z,6.93
2023-02-17T10:42:35.782Z,5.82
2023-02-17T10:45:38.806Z,6.70
2023-02-17T10:48:28.775Z,4.55
2023-02-17T10:51:17.625Z,5.57
2023-02-17T10:53:55.696Z,5.93
2023-02-17T10:56:46.968Z,5.28
2023-02-17T10:59:32.850Z,6.15
2023-02-17T11:03:12.519Z,5.30
2023-02-17T11:05:49.790Z,5.20
2023-02-17T11:08:49.771Z,5.25
2023-02-17T11:11:31.083Z,5.35
2023-02-17T11:14:13.778Z,5.15
2023-02-17T11:16:58.748Z,5.35
2023-02-17T11:19:30.111Z,5.28
2023-02-17T11:22:06.873Z,4.78
2023-02-17T11:24:41.738Z,4.25
2023-02-17T11:27:18.785Z,4.85
2023-02-17T11:29:45.447Z,5.53
2023-02-17T11:32:19.772Z,5.05
2023-02-17T11:34:57.726Z,5.10
2023-02-17T11:37:35.781Z,5.38
2023-02-17T11:40:26.258Z,5.75
2023-02-17T11:43:06.232Z,5.88
2023-02-17T11:46:01.100Z,5.15
2023-02-17T11:49:12.852Z,4.95
2023-02-17T11:52:15.754Z,5.35
2023-02-17T11:54:51.558Z,5.07
2023-02-17T11:57:51.749Z,5.38
2023-02-17T12:00:36.972Z,5.63
2023-02-17T12:04:07.853Z,5.25
2023-02-17T12:07:24.206Z,5.90
2023-02-17T12:10:03.789Z,5.97
2023-02-17T12:12:50.401Z,5.40
2023-02-17T12:15:38.855Z,6.05
2023-02-17T12:18:21.186Z,5.35
2023-02-17T12:21:31.858Z,5.75
2023-02-17T12:24:11.829Z,5.47
2023-02-17T12:27:10.762Z,5.95
2023-02-17T12:30:01.251Z,6.40
2023-02-17T12:32:54.891Z,6.25
2023-02-17T12:35:43.827Z,6.10
2023-02-17T12:38:27.092Z,6.93
2023-02-17T12:41:54.769Z,6.57
2023-02-17T12:44:27.971Z,6.65
2023-02-17T12:47:06.838Z,7.82
2023-02-17T12:50:07.341Z,7.47
2023-02-17T12:52:49.173Z,6.95
2023-02-17T12:55:25.522Z,7.35
2023-02-17T12:58:18.910Z,7.60
2023-02-17T13:01:20.925Z,7.43
2023-02-17T13:03:55.062Z,8.50
2023-02-17T13:06:48.688Z,8.25
2023-02-17T13:09:31.945Z,8.85
2023-02-17T13:12:30.193Z,8.35
2023-02-17T13:15:08.885Z,8.77
2023-02-17T13:17:59.142Z,7.75
2023-02-17T13:20:38.843Z,8.93
2023-02-17T13:23:18.967Z,8.02
2023-02-17T13:25:52.859Z,8.20
2023-02-17T13:28:40.154Z,7.93
2023-02-17T13:31:24.195Z,6.93
2023-02-17T13:34:05.902Z,7.45
2023-02-17T13:36:38.868Z,7.47
2023-02-17T13:39:35.384Z,7.30
2023-02-17T13:42:55.121Z,6.32
2023-02-17T13:46:05.211Z,6.40
2023-02-17T13:48:34.519Z,6.50
2023-02-17T13:51:11.102Z,6.07
2023-02-17T13:53:41.232Z,6.57
2023-02-17T13:56:30.871Z,6.57
2023-02-17T13:59:18.650Z,5.80
2023-02-17T14:02:00.884Z,4.82
2023-02-17T14:04:32.000Z,5.78
2023-02-17T14:07:10.987Z,6.63
2023-02-17T14:09:41.830Z,5.13
2023-02-17T14:12:27.956Z,4.88
2023-02-17T14:14:55.115Z,6.10
2023-02-17T14:17:39.990Z,5.78
2023-02-17T14:20:14.024Z,5.57
2023-02-17T14:22:59.179Z,5.30
2023-02-17T14:25:41.933Z,6.07
2023-02-17T14:28:20.590Z,5.70
2023-02-17T14:30:54.931Z,5.15
2023-02-17T14:33:30.992Z,5.72
2023-02-17T14:36:08.279Z,4.65
2023-02-17T14:38:49.000Z,4.70
2023-02-17T14:41:16.029Z,5.53
2023-02-17T14:46:36.972Z,5.50
2023-02-17T14:49:04.288Z,6.07
2023-02-17T14:51:42.951Z,5.88
2023-02-17T14:54:18.524Z,6.45
2023-02-17T14:56:58.929Z,5.95
2023-02-17T14:59:32.893Z,6.07
2023-02-17T15:02:14.030Z,6.13
2023-02-17T15:04:48.070Z,5.15
2023-02-17T15:07:18.351Z,6.47
2023-02-17T15:09:55.968Z,6.00
2023-02-17T15:12:26.144Z,6.10
2023-02-17T15:15:05.005Z,6.45
2023-02-17T15:17:35.218Z,6.32
2023-02-17T15:20:09.946Z,6.13
2023-02-17T15:22:44.524Z,5.93
2023-02-17T15:25:31.089Z,5.90
2023-02-17T15:28:06.976Z,5.95
2023-02-17T15:30:36.284Z,6.07
2023-02-17T15:33:10.032Z,5.85
2023-02-17T15:35:37.212Z,6.05
2023-02-17T15:38:14.759Z,6.30
2023-02-17T15:40:49.012Z,6.65
2023-02-17T15:43:28.922Z,5.75
2023-02-17T15:45:58.625Z,5.72
2023-02-17T15:48:39.867Z,5.32
2023-02-17T15:51:12.894Z,5.88
2023-02-17T15:53:39.908Z,5.70
2023-02-17T15:56:41.043Z,6.20
2023-02-17T15:59:18.995Z,5.80
2023-02-17T16:01:52.956Z,5.45
2023-02-17T16:04:26.619Z,6.53
2023-02-17T16:07:00.011Z,5.50
2023-02-17T16:09:34.225Z,6.07
2023-02-17T16:12:01.830Z,6.30
2023-02-17T16:14:47.045Z,5.97
2023-02-17T16:17:16.391Z,6.20
2023-02-17T16:19:50.974Z,5.97
2023-02-17T16:22:18.055Z,5.40
2023-02-17T16:24:51.945Z,6.25
2023-02-17T16:27:19.250Z,5.78
2023-02-17T16:29:52.993Z,5.53
2023-02-17T16:32:27.096Z,5.15
2023-02-17T16:35:00.981Z,5.13
2023-02-17T16:37:28.181Z,5.40
2023-02-17T16:40:02.171Z,5.07
2023-02-17T16:42:29.134Z,5.45
2023-02-17T16:47:40.957Z,5.32
2023-02-17T16:50:09.649Z,5.47
2023-02-17T16:52:45.422Z,5.10
2023-02-17T16:55:25.938Z,5.90
2023-02-17T16:58:02.601Z,5.47
2023-02-17T17:00:40.029Z,5.35
2023-02-17T17:03:32.036Z,5.75
2023-02-17T17:06:06.594Z,6.13
2023-02-17T17:08:33.898Z,6.03
2023-02-17T17:11:07.951Z,5.90
2023-02-17T17:13:35.226Z,6.47
2023-02-17T17:16:09.990Z,6.15
2023-02-17T17:18:37.143Z,5.93
2023-02-17T17:21:11.047Z,6.75
2023-02-17T17:23:45.955Z,5.80
2023-02-17T17:26:27.611Z,6.38
2023-02-17T17:29:04.761Z,4.75
2023-02-17T17:31:38.580Z,4.82
2023-02-17T17:34:12.945Z,5.22
2023-02-17T17:36:44.051Z,4.47
2023-02-17T17:39:27.039Z,5.13
2023-02-17T17:41:54.092Z,5.20
2023-02-17T17:44:28.083Z,4.75
2023-02-17T17:46:55.243Z,4.50
2023-02-17T17:49:25.144Z,4.35
2023-02-17T17:51:59.251Z,4.70
2023-02-17T17:54:33.012Z,4.75
2023-02-17T17:57:06.984Z,4.15
2023-02-17T17:59:34.233Z,4.28
2023-02-17T18:02:07.897Z,5.13
2023-02-17T18:04:37.526Z,4.63
2023-02-17T18:07:11.077Z,3.38
2023-02-17T18:09:39.391Z,3.30
2023-02-17T18:12:20.124Z,4.63
2023-02-17T18:14:52.285Z,2.83
2023-02-17T18:17:27.042Z,2.65
2023-02-17T18:19:55.391Z,3.00
2023-02-17T18:25:06.004Z,2.75
2023-02-17T18:27:51.064Z,3.15
2023-02-17T18:30:20.687Z,3.00
2023-02-17T18:32:48.049Z,2.83
2023-02-17T18:35:22.177Z,3.28
2023-02-17T18:37:49.541Z,4.13
2023-02-17T18:40:25.014Z,3.45
2023-02-17T18:42:52.274Z,3.67
2023-02-17T18:45:27.067Z,3.80
2023-02-17T18:47:54.312Z,4.03
2023-02-17T18:50:21.551Z,3.30
2023-02-17T18:52:55.047Z,2.90
2023-02-17T18:55:29.066Z,3.13
2023-02-17T18:57:59.430Z,2.70
2023-02-17T19:00:33.132Z,2.88
2023-02-17T19:03:07.028Z,2.50
2023-02-17T19:08:41.003Z,2.40
2023-02-17T19:11:15.058Z,2.58
2023-02-17T19:13:49.003Z,2.55
2023-02-17T19:16:21.287Z,2.75
2023-02-17T19:18:55.056Z,2.83
2023-02-17T19:21:23.302Z,3.38
2023-02-17T19:23:50.804Z,2.85
2023-02-17T19:26:25.061Z,3.00
2023-02-17T19:28:59.079Z,3.08
2023-02-17T19:31:26.472Z,2.90
2023-02-17T19:34:00.128Z,2.95
2023-02-17T19:36:27.294Z,3.22
2023-02-17T19:39:03.074Z,2.33
2023-02-17T19:41:37.254Z,2.80
2023-02-17T19:44:12.028Z,2.60
2023-02-17T19:46:46.311Z,3.63
2023-02-17T19:49:13.713Z,3.25
2023-02-17T19:51:48.107Z,2.65
2023-02-17T19:54:15.482Z,3.40
2023-02-17T19:56:49.196Z,3.40
2023-02-17T19:59:16.906Z,3.65
2023-02-17T20:01:51.379Z,3.50
2023-02-17T20:04:27.476Z,3.53
2023-02-17T20:07:01.098Z,3.65
2023-02-17T20:09:35.131Z,3.38
2023-02-17T20:12:02.091Z,3.88
2023-02-17T20:14:40.049Z,3.58
2023-02-17T20:17:07.286Z,3.17
2023-02-17T20:19:45.036Z,3.22
2023-02-17T20:22:12.353Z,3.50
2023-02-17T20:24:47.005Z,3.15
2023-02-17T20:27:16.481Z,3.30
2023-02-17T20:29:52.348Z,3.53
2023-02-17T20:32:20.108Z,3.83
2023-02-17T20:34:54.499Z,3.80
2023-02-17T20:37:21.424Z,4.13
2023-02-17T20:39:56.167Z,3.58
2023-02-17T20:42:23.365Z,4.10
2023-02-17T20:44:58.037Z,4.50
2023-02-17T20:47:33.701Z,6.10
2023-02-17T20:50:00.909Z,7.47
2023-02-17T20:52:34.106Z,7.95
2023-02-17T20:55:01.282Z,8.27
2023-02-17T20:57:35.046Z,8.55
2023-02-17T21:00:05.566Z,8.95
2023-02-17T21:02:39.051Z,9.95
2023-02-17T21:05:12.925Z,9.63
2023-02-17T21:07:47.088Z,10.15
2023-02-17T21:10:20.465Z,10.52
2023-02-17T21:12:54.109Z,11.52
2023-02-17T21:15:28.036Z,10.73
2023-02-17T21:18:02.134Z,10.27
2023-02-17T21:20:29.323Z,10.00
2023-02-17T21:22:56.482Z,9.57
2023-02-17T21:25:30.085Z,9.25
2023-02-17T21:27:57.437Z,8.80
2023-02-17T21:30:33.170Z,7.82
2023-02-17T21:33:10.200Z,8.70
2023-02-17T21:35:44.223Z,9.68
2023-02-17T21:38:12.492Z,8.10
2023-02-17T21:40:48.285Z,8.80
2023-02-17T21:43:34.310Z,8.90
2023-02-17T21:46:08.620Z,8.48
2023-02-17T21:48:38.829Z,8.25
2023-02-17T21:51:15.268Z,8.50
2023-02-17T21:53:48.177Z,8.68
2023-02-17T21:56:22.116Z,8.93
2023-02-17T21:58:51.077Z,8.15
2023-02-17T22:01:28.158Z,6.85
2023-02-17T22:04:02.908Z,8.18
2023-02-17T22:06:39.150Z,7.30
2023-02-17T22:09:15.186Z,6.75
2023-02-17T22:11:50.162Z,7.15
2023-02-17T22:14:30.165Z,5.63
2023-02-17T22:16:57.756Z,6.78
2023-02-17T22:19:32.173Z,6.13
2023-02-17T22:22:06.182Z,5.72
2023-02-17T22:24:40.144Z,6.22
2023-02-17T22:27:07.412Z,5.80
2023-02-17T22:29:41.220Z,6.60
2023-02-17T22:32:08.501Z,6.05
2023-02-17T22:34:42.212Z,6.75
2023-02-17T22:37:09.237Z,6.03
2023-02-17T22:39:43.205Z,6.50
2023-02-17T22:42:10.231Z,6.18
2023-02-17T22:44:46.675Z,6.57
2023-02-17T22:47:14.728Z,6.97
2023-02-17T22:49:49.264Z,6.82
2023-02-17T22:52:16.564Z,6.93
2023-02-17T22:54:44.491Z,6.18
2023-02-17T22:57:18.756Z,6.93
2023-02-17T22:59:46.121Z,6.63
2023-02-17T23:02:20.292Z,6.43
2023-02-17T23:04:54.035Z,6.97
2023-02-17T23:07:27.236Z,6.45
2023-02-17T23:09:54.711Z,7.53
2023-02-17T23:12:21.892Z,7.93
2023-02-17T23:14:58.435Z,7.90
2023-02-17T23:17:25.576Z,8.27
2023-02-17T23:19:59.229Z,9.32
2023-02-17T23:22:36.401Z,9.73
2023-02-17T23:25:03.488Z,10.20
2023-02-17T23:27:40.173Z,10.68
2023-02-17T23:30:16.210Z,12.18
2023-02-17T23:32:43.403Z,13.32
2023-02-17T23:35:18.128Z,14.10
2023-02-17T23:37:45.467Z,14.45
2023-02-17T23:40:13.286Z,15.00
2023-02-17T23:42:47.213Z,15.57
2023-02-17T23:45:14.686Z,16.67
2023-02-17T23:47:51.572Z,16.80
2023-02-17T23:50:18.893Z,19.10
2023-02-17T23:52:55.848Z,19.38
2023-02-17T23:55:23.050Z,21.55
2023-02-17T23:57:57.177Z,19.38
